Strona główna
METAR-TAF:

METAR-TAF

Lotnisko :

Port lotniczy Porto Alegre-Salgado Filho

Porto Alegre, Rio Grande do Sul, Brazylia

Szerokość geograficzna: 30-00S, Długość geograficzna: 051-11W, wysokość: 3 m

Aktualna obserwacja pogody

Raport powstał 27 minut temu, godzina 05:00 UTC
Wiatr 8 kt od południowo-południowy wschód
Temperatura 17°C
Wilgotność 63%
Ciśnienie 1021 hPa
Widzialność 10 km lub więcej
Brak chmur poniżej 1500 m i brak chmur cumulonimbus

METAR: SBPA 200500Z 15008KT CAVOK 17/10 Q1021

czas: 02:27 (05:27 UTC)

Prognoza

Raport powstał 7 godziny i 27 minut temu, godzina 22:00 UTC
Prognoza ważna od 20 godzina 00 UTC do 20 godzina 24 UTC
Wiatr 7 kt od wschodnio-południowy wschód
Widzialność 10 km lub więcej
Brak chmur poniżej 1500 m i brak chmur cumulonimbus
Prawdopodobieństwo 30%
od 20 godzina 07 UTC do 20 godzina 09 UTC
Widzialność: 5000 m
Przerywane chmury na wysokości 800 ft
zamglenie

TAF: SBPA 192200Z 2000/2024 11007KT CAVOK TN14/2008Z TX24/2018Z PROB30 2007/2009 5000 BR BKN008 RMK PER

Obserwacja i prognoza pogody dla ponad 4000 lotnisk (raport METAR i TAF).

Dostępne stacje oznaczono żółtymi i czerwonymi punktami na mapie.

Najedź kursorem aby zobaczyć nazwę stacji.

Kliknij aby zobaczyć obserwacje i prognozy pogody.

Aby zmienić mapę: kliknij na zielony przycisk z czarnym krzyżykiem, aby powiększyć; na zielony przycisk z myślnikiem, aby pomniejszyć; na zielone strzałki, aby przejść do map sąsiednich.


METAR-TAF: